sensor_id;sensor_type;location;lat;lon;timestamp;pressure;altitude;pressure_sealevel;temperature;humidity
21100;BME280;10708;50.824;4.408;2023-05-08T00:03:53;101081.50;;;14.89;100.00
21100;BME280;10708;50.824;4.408;2023-05-08T00:08:56;101078.16;;;14.86;100.00
21100;BME280;10708;50.824;4.408;2023-05-08T00:13:58;101084.50;;;14.82;100.00
21100;BME280;10708;50.824;4.408;2023-05-08T00:19:00;101082.09;;;14.77;100.00
21100;BME280;10708;50.824;4.408;2023-05-08T00:24:04;101084.94;;;14.72;100.00
21100;BME280;10708;50.824;4.408;2023-05-08T00:29:06;101084.94;;;14.72;100.00
21100;BME280;10708;50.824;4.408;2023-05-08T00:34:08;101077.84;;;14.73;100.00
21100;BME280;10708;50.824;4.408;2023-05-08T00:39:11;101076.06;;;14.73;100.00
21100;BME280;10708;50.824;4.408;2023-05-08T00:44:13;101084.81;;;14.75;100.00
21100;BME280;10708;50.824;4.408;2023-05-08T00:49:15;101083.66;;;14.81;100.00
21100;BME280;10708;50.824;4.408;2023-05-08T00:54:19;101084.50;;;14.82;100.00
21100;BME280;10708;50.824;4.408;2023-05-08T00:59:23;101092.28;;;14.86;100.00
21100;BME280;10708;50.824;4.408;2023-05-08T01:04:25;101086.88;;;14.88;100.00
21100;BME280;10708;50.824;4.408;2023-05-08T01:09:29;101094.19;;;14.83;100.00
21100;BME280;10708;50.824;4.408;2023-05-08T01:14:44;101101.00;;;14.88;100.00
21100;BME280;10708;50.824;4.408;2023-05-08T01:19:56;101100.50;;;14.80;100.00
21100;BME280;10708;50.824;4.408;2023-05-08T01:25:34;101111.25;;;14.77;100.00
21100;BME280;10708;50.824;4.408;2023-05-08T01:30:58;101115.25;;;14.67;100.00
21100;BME280;10708;50.824;4.408;2023-05-08T01:36:13;101123.31;;;14.64;100.00
21100;BME280;10708;50.824;4.408;2023-05-08T01:41:24;101114.22;;;14.69;100.00
21100;BME280;10708;50.824;4.408;2023-05-08T01:46:27;101122.09;;;14.71;100.00
21100;BME280;10708;50.824;4.408;2023-05-08T01:51:36;101104.88;;;14.61;100.00
21100;BME280;10708;50.824;4.408;2023-05-08T01:56:42;101112.72;;;14.64;100.00
21100;BME280;10708;50.824;4.408;2023-05-08T02:01:45;101113.56;;;14.64;100.00
21100;BME280;10708;50.824;4.408;2023-05-08T02:06:50;101121.25;;;14.70;100.00
21100;BME280;10708;50.824;4.408;2023-05-08T02:11:54;101118.72;;;14.67;100.00
21100;BME280;10708;50.824;4.408;2023-05-08T02:16:56;101114.28;;;14.68;100.00
21100;BME280;10708;50.824;4.408;2023-05-08T02:22:01;101112.44;;;14.70;100.00
21100;BME280;10708;50.824;4.408;2023-05-08T02:27:05;101121.19;;;14.72;100.00
21100;BME280;10708;50.824;4.408;2023-05-08T02:32:09;101117.78;;;14.68;100.00
21100;BME280;10708;50.824;4.408;2023-05-08T02:37:13;101114.28;;;14.68;100.00
21100;BME280;10708;50.824;4.408;2023-05-08T02:42:17;101113.34;;;14.69;100.00
21100;BME280;10708;50.824;4.408;2023-05-08T02:47:21;101107.00;;;14.73;100.00
21100;BME280;10708;50.824;4.408;2023-05-08T02:52:28;101108.59;;;14.77;100.00
21100;BME280;10708;50.824;4.408;2023-05-08T02:57:36;101106.06;;;14.74;100.00
21100;BME280;10708;50.824;4.408;2023-05-08T03:02:43;101105.09;;;14.76;100.00
21100;BME280;10708;50.824;4.408;2023-05-08T03:07:51;101115.81;;;14.73;100.00
21100;BME280;10708;50.824;4.408;2023-05-08T03:12:55;101116.75;;;14.72;100.00
21100;BME280;10708;50.824;4.408;2023-05-08T03:18:02;101111.72;;;14.66;100.00
21100;BME280;10708;50.824;4.408;2023-05-08T03:23:09;101121.13;;;14.53;100.00
21100;BME280;10708;50.824;4.408;2023-05-08T03:28:13;101121.66;;;14.41;100.00
21100;BME280;10708;50.824;4.408;2023-05-08T03:33:17;101121.72;;;14.39;100.00
21100;BME280;10708;50.824;4.408;2023-05-08T03:38:21;101131.69;;;14.33;100.00
21100;BME280;10708;50.824;4.408;2023-05-08T03:43:24;101123.84;;;14.30;100.00
21100;BME280;10708;50.824;4.408;2023-05-08T03:48:27;101118.63;;;14.28;100.00
21100;BME280;10708;50.824;4.408;2023-05-08T03:53:33;101109.69;;;14.31;100.00
21100;BME280;10708;50.824;4.408;2023-05-08T03:58:38;101115.31;;;14.23;100.00
21100;BME280;10708;50.824;4.408;2023-05-08T04:03:53;101118.03;;;14.22;100.00
21100;BME280;10708;50.824;4.408;2023-05-08T04:09:09;101117.09;;;14.23;100.00
21100;BME280;10708;50.824;4.408;2023-05-08T04:14:18;101121.53;;;14.22;100.00
21100;BME280;10708;50.824;4.408;2023-05-08T04:19:23;101130.41;;;14.21;100.00
21100;BME280;10708;50.824;4.408;2023-05-08T04:24:29;101131.34;;;14.20;100.00
21100;BME280;10708;50.824;4.408;2023-05-08T04:29:32;101129.59;;;14.19;100.00
21100;BME280;10708;50.824;4.408;2023-05-08T04:34:35;101134.31;;;14.13;100.00
21100;BME280;10708;50.824;4.408;2023-05-08T04:39:38;101134.63;;;14.05;100.00
21100;BME280;10708;50.824;4.408;2023-05-08T04:44:40;101141.75;;;14.03;100.00
21100;BME280;10708;50.824;4.408;2023-05-08T04:49:42;101138.38;;;13.99;100.00
21100;BME280;10708;50.824;4.408;2023-05-08T04:54:45;101147.06;;;14.03;100.00
21100;BME280;10708;50.824;4.408;2023-05-08T04:59:47;101143.50;;;14.04;100.00
21100;BME280;10708;50.824;4.408;2023-05-08T05:04:50;101149.72;;;14.03;100.00
21100;BME280;10708;50.824;4.408;2023-05-08T05:09:53;101154.75;;;14.09;100.00
21100;BME280;10708;50.824;4.408;2023-05-08T05:14:55;101165.16;;;14.14;100.00
21100;BME280;10708;50.824;4.408;2023-05-08T05:19:57;101179.00;;;14.20;100.00
21100;BME280;10708;50.824;4.408;2023-05-08T05:25:00;101183.34;;;14.23;100.00
21100;BME280;10708;50.824;4.408;2023-05-08T05:30:03;101189.22;;;14.29;100.00
21100;BME280;10708;50.824;4.408;2023-05-08T05:35:06;101195.91;;;14.39;100.00
21100;BME280;10708;50.824;4.408;2023-05-08T05:40:10;101196.66;;;14.43;100.00
21100;BME280;10708;50.824;4.408;2023-05-08T05:45:13;101191.88;;;14.51;100.00
21100;BME280;10708;50.824;4.408;2023-05-08T05:50:16;101197.59;;;14.62;100.00
21100;BME280;10708;50.824;4.408;2023-05-08T05:55:20;101202.56;;;14.70;100.00
21100;BME280;10708;50.824;4.408;2023-05-08T06:00:24;101210.34;;;14.74;100.00
21100;BME280;10708;50.824;4.408;2023-05-08T06:05:27;101210.00;;;14.82;100.00
21100;BME280;10708;50.824;4.408;2023-05-08T06:10:30;101212.00;;;14.77;100.00
21100;BME280;10708;50.824;4.408;2023-05-08T06:15:33;101217.38;;;14.75;100.00
21100;BME280;10708;50.824;4.408;2023-05-08T06:20:36;101214.66;;;14.77;100.00
21100;BME280;10708;50.824;4.408;2023-05-08T06:25:39;101214.56;;;14.78;100.00
21100;BME280;10708;50.824;4.408;2023-05-08T06:30:41;101205.28;;;14.68;100.00
21100;BME280;10708;50.824;4.408;2023-05-08T06:35:45;101209.47;;;14.74;100.00
21100;BME280;10708;50.824;4.408;2023-05-08T06:40:49;101203.19;;;14.76;100.00
21100;BME280;10708;50.824;4.408;2023-05-08T06:45:51;101214.25;;;14.86;100.00
21100;BME280;10708;50.824;4.408;2023-05-08T06:50:53;101208.56;;;14.95;100.00
21100;BME280;10708;50.824;4.408;2023-05-08T06:55:57;101208.72;;;15.11;100.00
21100;BME280;10708;50.824;4.408;2023-05-08T07:00:59;101204.16;;;15.14;100.00
21100;BME280;10708;50.824;4.408;2023-05-08T07:06:01;101216.91;;;15.06;100.00
21100;BME280;10708;50.824;4.408;2023-05-08T07:11:08;101211.34;;;14.92;100.00
21100;BME280;10708;50.824;4.408;2023-05-08T07:16:10;101218.38;;;14.93;100.00
21100;BME280;10708;50.824;4.408;2023-05-08T07:21:12;101218.16;;;14.98;100.00
21100;BME280;10708;50.824;4.408;2023-05-08T07:26:17;101224.13;;;15.03;100.00
21100;BME280;10708;50.824;4.408;2023-05-08T07:31:19;101229.31;;;15.06;100.00
21100;BME280;10708;50.824;4.408;2023-05-08T07:36:21;101222.13;;;15.08;100.00
21100;BME280;10708;50.824;4.408;2023-05-08T07:41:24;101221.75;;;15.17;100.00
21100;BME280;10708;50.824;4.408;2023-05-08T07:46:27;101213.44;;;15.25;100.00
21100;BME280;10708;50.824;4.408;2023-05-08T07:51:29;101220.97;;;15.34;100.00
21100;BME280;10708;50.824;4.408;2023-05-08T07:56:32;101225.59;;;15.49;100.00
21100;BME280;10708;50.824;4.408;2023-05-08T08:01:34;101220.84;;;15.57;100.00
21100;BME280;10708;50.824;4.408;2023-05-08T08:06:36;101224.44;;;15.75;100.00
21100;BME280;10708;50.824;4.408;2023-05-08T08:11:40;101221.78;;;15.75;100.00
21100;BME280;10708;50.824;4.408;2023-05-08T08:16:42;101222.03;;;15.87;100.00
21100;BME280;10708;50.824;4.408;2023-05-08T08:21:44;101219.53;;;16.03;100.00
21100;BME280;10708;50.824;4.408;2023-05-08T08:26:48;101225.69;;;16.22;100.00
21100;BME280;10708;50.824;4.408;2023-05-08T08:31:50;101229.09;;;16.43;100.00
21100;BME280;10708;50.824;4.408;2023-05-08T08:36:52;101226.69;;;16.56;100.00
21100;BME280;10708;50.824;4.408;2023-05-08T08:41:55;101232.50;;;16.64;100.00
21100;BME280;10708;50.824;4.408;2023-05-08T08:46:57;101238.28;;;16.72;100.00
21100;BME280;10708;50.824;4.408;2023-05-08T08:52:02;101244.09;;;16.63;100.00
21100;BME280;10708;50.824;4.408;2023-05-08T08:57:10;101233.00;;;16.53;100.00
21100;BME280;10708;50.824;4.408;2023-05-08T09:02:13;101234.91;;;16.69;100.00
21100;BME280;10708;50.824;4.408;2023-05-08T09:07:17;101229.91;;;16.63;100.00
21100;BME280;10708;50.824;4.408;2023-05-08T09:12:20;101232.56;;;16.63;100.00
21100;BME280;10708;50.824;4.408;2023-05-08T09:17:22;101226.09;;;16.85;100.00
21100;BME280;10708;50.824;4.408;2023-05-08T09:22:25;101224.34;;;17.02;100.00
21100;BME280;10708;50.824;4.408;2023-05-08T09:27:29;101225.41;;;17.32;100.00
21100;BME280;10708;50.824;4.408;2023-05-08T09:32:33;101215.06;;;17.59;100.00
21100;BME280;10708;50.824;4.408;2023-05-08T09:37:37;101216.34;;;17.85;100.00
21100;BME280;10708;50.824;4.408;2023-05-08T09:42:41;101227.50;;;18.07;100.00
21100;BME280;10708;50.824;4.408;2023-05-08T09:47:47;101208.84;;;18.68;100.00
21100;BME280;10708;50.824;4.408;2023-05-08T09:52:49;101214.06;;;18.40;100.00
21100;BME280;10708;50.824;4.408;2023-05-08T09:57:54;101224.78;;;18.70;100.00
21100;BME280;10708;50.824;4.408;2023-05-08T10:02:58;101221.59;;;18.93;100.00
21100;BME280;10708;50.824;4.408;2023-05-08T10:08:20;101219.94;;;19.21;100.00
21100;BME280;10708;50.824;4.408;2023-05-08T10:13:24;101223.69;;;19.46;100.00
21100;BME280;10708;50.824;4.408;2023-05-08T10:18:28;101210.50;;;19.43;100.00
21100;BME280;10708;50.824;4.408;2023-05-08T10:23:35;101227.66;;;19.39;100.00
21100;BME280;10708;50.824;4.408;2023-05-08T10:28:43;101224.22;;;19.37;100.00
21100;BME280;10708;50.824;4.408;2023-05-08T10:33:49;101212.72;;;19.65;100.00
21100;BME280;10708;50.824;4.408;2023-05-08T10:38:52;101214.31;;;19.82;100.00
21100;BME280;10708;50.824;4.408;2023-05-08T10:43:56;101219.56;;;19.83;100.00
21100;BME280;10708;50.824;4.408;2023-05-08T10:49:04;101203.75;;;19.52;100.00
21100;BME280;10708;50.824;4.408;2023-05-08T10:54:14;101197.88;;;19.88;100.00
21100;BME280;10708;50.824;4.408;2023-05-08T10:59:22;101192.94;;;20.62;100.00
21100;BME280;10708;50.824;4.408;2023-05-08T11:04:27;101185.81;;;20.88;100.00
21100;BME280;10708;50.824;4.408;2023-05-08T11:09:44;101186.69;;;21.14;100.00
21100;BME280;10708;50.824;4.408;2023-05-08T11:14:56;101167.63;;;21.19;100.00
21100;BME280;10708;50.824;4.408;2023-05-08T11:20:02;101173.41;;;21.13;100.00
21100;BME280;10708;50.824;4.408;2023-05-08T11:25:06;101174.34;;;20.86;100.00
21100;BME280;10708;50.824;4.408;2023-05-08T11:30:33;101171.22;;;20.67;100.00
21100;BME280;10708;50.824;4.408;2023-05-08T11:35:53;101171.50;;;20.23;100.00
21100;BME280;10708;50.824;4.408;2023-05-08T11:40:59;101165.69;;;19.89;100.00
21100;BME280;10708;50.824;4.408;2023-05-08T11:46:03;101164.03;;;19.74;100.00
21100;BME280;10708;50.824;4.408;2023-05-08T11:51:08;101165.75;;;19.75;100.00
21100;BME280;10708;50.824;4.408;2023-05-08T11:56:10;101164.19;;;20.12;100.00
21100;BME280;10708;50.824;4.408;2023-05-08T12:01:18;101149.78;;;20.15;100.00
21100;BME280;10708;50.824;4.408;2023-05-08T12:06:21;101156.13;;;20.53;100.00
21100;BME280;10708;50.824;4.408;2023-05-08T12:11:23;101139.13;;;20.92;100.00
21100;BME280;10708;50.824;4.408;2023-05-08T12:16:27;101133.22;;;21.13;100.00
21100;BME280;10708;50.824;4.408;2023-05-08T12:21:29;101136.34;;;21.19;100.00
21100;BME280;10708;50.824;4.408;2023-05-08T12:26:34;101133.09;;;21.40;100.00
21100;BME280;10708;50.824;4.408;2023-05-08T12:31:38;101124.88;;;21.30;100.00
21100;BME280;10708;50.824;4.408;2023-05-08T12:36:40;101121.88;;;21.34;100.00
21100;BME280;10708;50.824;4.408;2023-05-08T12:41:46;101126.09;;;21.26;100.00
21100;BME280;10708;50.824;4.408;2023-05-08T12:46:50;101116.06;;;21.41;100.00
21100;BME280;10708;50.824;4.408;2023-05-08T12:51:59;101114.69;;;21.35;100.00
21100;BME280;10708;50.824;4.408;2023-05-08T12:57:08;101116.34;;;21.61;100.00
21100;BME280;10708;50.824;4.408;2023-05-08T13:02:17;101105.34;;;21.41;100.00
21100;BME280;10708;50.824;4.408;2023-05-08T13:07:20;101112.97;;;21.70;100.00
21100;BME280;10708;50.824;4.408;2023-05-08T13:12:23;101097.25;;;21.66;100.00
21100;BME280;10708;50.824;4.408;2023-05-08T13:17:26;101096.06;;;21.57;100.00
21100;BME280;10708;50.824;4.408;2023-05-08T13:22:28;101099.31;;;21.50;100.00
21100;BME280;10708;50.824;4.408;2023-05-08T13:27:30;101108.88;;;21.41;100.00
21100;BME280;10708;50.824;4.408;2023-05-08T13:32:34;101079.47;;;21.03;100.00
21100;BME280;10708;50.824;4.408;2023-05-08T13:37:36;101096.59;;;21.00;100.00
21100;BME280;10708;50.824;4.408;2023-05-08T13:42:38;101092.00;;;20.52;100.00
21100;BME280;10708;50.824;4.408;2023-05-08T13:47:42;101086.56;;;20.14;100.00
21100;BME280;10708;50.824;4.408;2023-05-08T13:52:44;101087.47;;;20.00;100.00
21100;BME280;10708;50.824;4.408;2023-05-08T13:57:46;101085.00;;;19.97;100.00
21100;BME280;10708;50.824;4.408;2023-05-08T14:02:49;101083.44;;;19.53;100.00
21100;BME280;10708;50.824;4.408;2023-05-08T14:07:51;101087.31;;;19.62;100.00
21100;BME280;10708;50.824;4.408;2023-05-08T14:12:53;101091.91;;;19.87;100.00
21100;BME280;10708;50.824;4.408;2023-05-08T14:17:57;101091.19;;;19.98;100.00
21100;BME280;10708;50.824;4.408;2023-05-08T14:22:59;101089.78;;;20.32;100.00
21100;BME280;10708;50.824;4.408;2023-05-08T14:28:01;101075.53;;;20.45;100.00
21100;BME280;10708;50.824;4.408;2023-05-08T14:33:05;101070.59;;;20.65;100.00
21100;BME280;10708;50.824;4.408;2023-05-08T14:38:08;101075.94;;;20.52;100.00
21100;BME280;10708;50.824;4.408;2023-05-08T14:43:11;101077.06;;;20.22;100.00
21100;BME280;10708;50.824;4.408;2023-05-08T14:48:15;101066.31;;;20.10;100.00
21100;BME280;10708;50.824;4.408;2023-05-08T14:53:17;101072.91;;;19.65;100.00
21100;BME280;10708;50.824;4.408;2023-05-08T14:58:19;101073.41;;;19.84;100.00
21100;BME280;10708;50.824;4.408;2023-05-08T15:03:23;101076.94;;;19.84;100.00
21100;BME280;10708;50.824;4.408;2023-05-08T15:08:25;101068.31;;;19.94;100.00
21100;BME280;10708;50.824;4.408;2023-05-08T15:13:27;101070.69;;;19.71;100.00
21100;BME280;10708;50.824;4.408;2023-05-08T15:18:34;101072.34;;;19.60;100.00
21100;BME280;10708;50.824;4.408;2023-05-08T15:23:36;101065.06;;;19.76;100.00
21100;BME280;10708;50.824;4.408;2023-05-08T15:28:39;101077.31;;;19.66;100.00
21100;BME280;10708;50.824;4.408;2023-05-08T15:33:42;101075.06;;;19.17;100.00
21100;BME280;10708;50.824;4.408;2023-05-08T15:38:45;101080.72;;;18.98;100.00
21100;BME280;10708;50.824;4.408;2023-05-08T15:43:48;101083.19;;;18.87;100.00
21100;BME280;10708;50.824;4.408;2023-05-08T15:48:52;101089.56;;;18.26;100.00
21100;BME280;10708;50.824;4.408;2023-05-08T15:53:54;101099.84;;;18.32;100.00
21100;BME280;10708;50.824;4.408;2023-05-08T15:58:57;101110.13;;;18.24;100.00
21100;BME280;10708;50.824;4.408;2023-05-08T16:04:00;101109.41;;;18.06;100.00
21100;BME280;10708;50.824;4.408;2023-05-08T16:09:02;101117.84;;;17.83;100.00
21100;BME280;10708;50.824;4.408;2023-05-08T16:14:05;101113.03;;;17.74;100.00
21100;BME280;10708;50.824;4.408;2023-05-08T16:19:08;101116.66;;;17.73;100.00
21100;BME280;10708;50.824;4.408;2023-05-08T16:24:10;101106.84;;;17.74;100.00
21100;BME280;10708;50.824;4.408;2023-05-08T16:29:12;101104.44;;;17.85;100.00
21100;BME280;10708;50.824;4.408;2023-05-08T16:34:16;101090.50;;;17.95;100.00
21100;BME280;10708;50.824;4.408;2023-05-08T16:39:18;101083.44;;;17.94;100.00
21100;BME280;10708;50.824;4.408;2023-05-08T16:44:20;101091.97;;;17.85;100.00
21100;BME280;10708;50.824;4.408;2023-05-08T16:49:24;101090.00;;;17.73;100.00
21100;BME280;10708;50.824;4.408;2023-05-08T16:54:26;101068.50;;;17.60;100.00
21100;BME280;10708;50.824;4.408;2023-05-08T16:59:28;101055.72;;;17.67;100.00
21100;BME280;10708;50.824;4.408;2023-05-08T17:04:32;101045.38;;;17.61;100.00
21100;BME280;10708;50.824;4.408;2023-05-08T17:09:34;101044.97;;;17.53;100.00
21100;BME280;10708;50.824;4.408;2023-05-08T17:14:35;101057.69;;;17.48;100.00
21100;BME280;10708;50.824;4.408;2023-05-08T17:19:41;101066.63;;;17.47;100.00
21100;BME280;10708;50.824;4.408;2023-05-08T17:24:43;101056.25;;;17.26;100.00
21100;BME280;10708;50.824;4.408;2023-05-08T17:29:45;101065.41;;;17.21;100.00
21100;BME280;10708;50.824;4.408;2023-05-08T17:34:48;101051.91;;;17.08;100.00
21100;BME280;10708;50.824;4.408;2023-05-08T17:39:50;101048.50;;;17.06;100.00
21100;BME280;10708;50.824;4.408;2023-05-08T17:44:52;101046.16;;;16.84;100.00
21100;BME280;10708;50.824;4.408;2023-05-08T17:49:56;101024.69;;;16.87;100.00
21100;BME280;10708;50.824;4.408;2023-05-08T17:54:58;101029.16;;;16.87;100.00
21100;BME280;10708;50.824;4.408;2023-05-08T18:00:00;101033.28;;;16.92;100.00
21100;BME280;10708;50.824;4.408;2023-05-08T18:05:03;101017.91;;;16.97;100.00
21100;BME280;10708;50.824;4.408;2023-05-08T18:10:06;101022.38;;;16.97;100.00
21100;BME280;10708;50.824;4.408;2023-05-08T18:15:09;101022.63;;;16.92;100.00
21100;BME280;10708;50.824;4.408;2023-05-08T18:20:13;101038.31;;;16.81;100.00
21100;BME280;10708;50.824;4.408;2023-05-08T18:25:15;101052.28;;;16.69;100.00
21100;BME280;10708;50.824;4.408;2023-05-08T18:30:17;101045.00;;;16.55;100.00
21100;BME280;10708;50.824;4.408;2023-05-08T18:35:21;101055.50;;;16.41;100.00
21100;BME280;10708;50.824;4.408;2023-05-08T18:40:23;101050.66;;;16.32;100.00
21100;BME280;10708;50.824;4.408;2023-05-08T18:45:25;101043.97;;;16.25;100.00
21100;BME280;10708;50.824;4.408;2023-05-08T18:50:29;101057.31;;;16.23;100.00
21100;BME280;10708;50.824;4.408;2023-05-08T18:55:31;101046.03;;;16.18;100.00
21100;BME280;10708;50.824;4.408;2023-05-08T19:00:33;101044.44;;;16.16;100.00
21100;BME280;10708;50.824;4.408;2023-05-08T19:05:37;101033.16;;;16.11;100.00
21100;BME280;10708;50.824;4.408;2023-05-08T19:10:39;101030.97;;;16.02;100.00
21100;BME280;10708;50.824;4.408;2023-05-08T19:15:41;101041.75;;;15.99;100.00
21100;BME280;10708;50.824;4.408;2023-05-08T19:20:45;101046.38;;;15.95;100.00
21100;BME280;10708;50.824;4.408;2023-05-08T19:25:47;101042.47;;;15.85;100.00
21100;BME280;10708;50.824;4.408;2023-05-08T19:30:49;101046.44;;;15.76;100.00
21100;BME280;10708;50.824;4.408;2023-05-08T19:35:53;101045.19;;;15.66;100.00
21100;BME280;10708;50.824;4.408;2023-05-08T19:40:55;101044.66;;;15.58;100.00
21100;BME280;10708;50.824;4.408;2023-05-08T19:45:57;101066.94;;;15.56;100.00
21100;BME280;10708;50.824;4.408;2023-05-08T19:51:05;101068.97;;;15.49;100.00
21100;BME280;10708;50.824;4.408;2023-05-08T19:56:08;101070.00;;;15.46;100.00
21100;BME280;10708;50.824;4.408;2023-05-08T20:01:10;101068.34;;;15.44;100.00
21100;BME280;10708;50.824;4.408;2023-05-08T20:06:13;101073.94;;;15.38;100.00
21100;BME280;10708;50.824;4.408;2023-05-08T20:11:15;101067.84;;;15.36;100.00
21100;BME280;10708;50.824;4.408;2023-05-08T20:16:18;101066.06;;;15.36;100.00
21100;BME280;10708;50.824;4.408;2023-05-08T20:26:32;101054.72;;;15.33;100.00
21100;BME280;10708;50.824;4.408;2023-05-08T20:31:36;101054.00;;;15.29;100.00
21100;BME280;10708;50.824;4.408;2023-05-08T20:36:40;101053.31;;;15.26;100.00
21100;BME280;10708;50.824;4.408;2023-05-08T20:41:44;101041.91;;;15.24;100.00
21100;BME280;10708;50.824;4.408;2023-05-08T20:46:46;101032.28;;;15.21;100.00
21100;BME280;10708;50.824;4.408;2023-05-08T20:51:48;101039.44;;;15.19;100.00
21100;BME280;10708;50.824;4.408;2023-05-08T20:56:51;101036.84;;;15.18;100.00
21100;BME280;10708;50.824;4.408;2023-05-08T21:01:53;101029.94;;;15.15;100.00
21100;BME280;10708;50.824;4.408;2023-05-08T21:06:55;101021.38;;;15.08;100.00
21100;BME280;10708;50.824;4.408;2023-05-08T21:11:59;101011.78;;;15.06;100.00
21100;BME280;10708;50.824;4.408;2023-05-08T21:17:01;101007.41;;;15.05;100.00
21100;BME280;10708;50.824;4.408;2023-05-08T21:22:04;101007.47;;;15.03;100.00
21100;BME280;10708;50.824;4.408;2023-05-08T21:27:08;100995.28;;;14.99;100.00
21100;BME280;10708;50.824;4.408;2023-05-08T21:32:10;100996.38;;;14.95;100.00
21100;BME280;10708;50.824;4.408;2023-05-08T21:37:12;100993.78;;;14.94;100.00
21100;BME280;10708;50.824;4.408;2023-05-08T21:42:16;100987.69;;;14.92;100.00
21100;BME280;10708;50.824;4.408;2023-05-08T21:47:18;100985.19;;;14.89;100.00
21100;BME280;10708;50.824;4.408;2023-05-08T21:52:22;100971.22;;;14.85;100.00
21100;BME280;10708;50.824;4.408;2023-05-08T21:57:26;100969.63;;;14.81;100.00
21100;BME280;10708;50.824;4.408;2023-05-08T22:02:28;100958.41;;;14.76;100.00
21100;BME280;10708;50.824;4.408;2023-05-08T22:07:30;100947.88;;;14.74;100.00
21100;BME280;10708;50.824;4.408;2023-05-08T22:12:35;100947.13;;;14.71;100.00
21100;BME280;10708;50.824;4.408;2023-05-08T22:17:39;100935.75;;;14.69;100.00
21100;BME280;10708;50.824;4.408;2023-05-08T22:22:41;100934.88;;;14.68;100.00
21100;BME280;10708;50.824;4.408;2023-05-08T22:27:44;100919.22;;;14.64;100.00
21100;BME280;10708;50.824;4.408;2023-05-08T22:32:51;100922.06;;;14.59;100.00
21100;BME280;10708;50.824;4.408;2023-05-08T22:37:54;100918.66;;;14.57;100.00
21100;BME280;10708;50.824;4.408;2023-05-08T22:42:59;100907.44;;;14.51;100.00
21100;BME280;10708;50.824;4.408;2023-05-08T22:48:02;100896.16;;;14.47;100.00
21100;BME280;10708;50.824;4.408;2023-05-08T22:53:04;100897.13;;;14.45;100.00
21100;BME280;10708;50.824;4.408;2023-05-08T22:58:09;100882.31;;;14.40;100.00
21100;BME280;10708;50.824;4.408;2023-05-08T23:03:11;100872.66;;;14.38;100.00
21100;BME280;10708;50.824;4.408;2023-05-08T23:08:13;100878.91;;;14.37;100.00
21100;BME280;10708;50.824;4.408;2023-05-08T23:13:16;100880.78;;;14.35;100.00
21100;BME280;10708;50.824;4.408;2023-05-08T23:18:18;100873.81;;;14.32;100.00
21100;BME280;10708;50.824;4.408;2023-05-08T23:23:20;100874.75;;;14.31;100.00
21100;BME280;10708;50.824;4.408;2023-05-08T23:28:24;100871.31;;;14.29;100.00
21100;BME280;10708;50.824;4.408;2023-05-08T23:33:26;100860.88;;;14.26;100.00
21100;BME280;10708;50.824;4.408;2023-05-08T23:38:28;100851.19;;;14.25;100.00
21100;BME280;10708;50.824;4.408;2023-05-08T23:43:31;100853.06;;;14.23;100.00
21100;BME280;10708;50.824;4.408;2023-05-08T23:48:33;100850.47;;;14.22;100.00
21100;BME280;10708;50.824;4.408;2023-05-08T23:53:35;100840.94;;;14.18;100.00
21100;BME280;10708;50.824;4.408;2023-05-08T23:58:39;100851.63;;;14.16;100.00
